Terminal Aerodrome Forecast
Issued by NWS

Home | Current Version | Previous Version | Graphics & Text | Print | Product List | Glossary On
Versions: 1 2 3 4 5 6 7 8 9 10 11 12
000
FTUS43 KTOP 242000 AAA
TAFFOE
TAF AMD
KFOE 242059Z 2421/2518 28009KT P6SM OVC018
     FM250200 20007KT P6SM SKC
     FM251300 18013KT P6SM SKC
     FM251600 18020G30KT P6SM SCT250=

USA.gov is the U.S. government's official web portal to all federal, state and local government web resources and services.